sensor_id;sensor_type;location;lat;lon;timestamp;pressure;altitude;pressure_sealevel;temperature;humidity
75438;BME280;64015;49.392;15.582;2023-02-24T00:00:11;95147.72;;;5.45;100.00
75438;BME280;64015;49.392;15.582;2023-02-24T00:03:11;95145.34;;;5.44;100.00
75438;BME280;64015;49.392;15.582;2023-02-24T00:05:37;95138.56;;;5.43;100.00
75438;BME280;64015;49.392;15.582;2023-02-24T00:08:04;95136.97;;;5.42;100.00
75438;BME280;64015;49.392;15.582;2023-02-24T00:10:33;95142.16;;;5.37;100.00
75438;BME280;64015;49.392;15.582;2023-02-24T00:13:02;95141.38;;;5.36;100.00
75438;BME280;64015;49.392;15.582;2023-02-24T00:15:27;95139.56;;;5.37;100.00
75438;BME280;64015;49.392;15.582;2023-02-24T00:17:54;95133.53;;;5.36;100.00
75438;BME280;64015;49.392;15.582;2023-02-24T00:20:20;95130.66;;;5.38;100.00
75438;BME280;64015;49.392;15.582;2023-02-24T00:22:46;95130.66;;;5.38;100.00
75438;BME280;64015;49.392;15.582;2023-02-24T00:25:11;95128.09;;;5.43;100.00
75438;BME280;64015;49.392;15.582;2023-02-24T00:27:39;95123.66;;;5.43;100.00
75438;BME280;64015;49.392;15.582;2023-02-24T00:30:05;95121.28;;;5.42;100.00
75438;BME280;64015;49.392;15.582;2023-02-24T00:32:31;95114.75;;;5.44;100.00
75438;BME280;64015;49.392;15.582;2023-02-24T00:34:57;95109.53;;;5.44;100.00
75438;BME280;64015;49.392;15.582;2023-02-24T00:37:23;95106.91;;;5.44;100.00
75438;BME280;64015;49.392;15.582;2023-02-24T00:39:49;95105.59;;;5.47;100.00
75438;BME280;64015;49.392;15.582;2023-02-24T00:42:15;95099.16;;;5.59;100.00
75438;BME280;64015;49.392;15.582;2023-02-24T00:44:45;95101.00;;;5.59;100.00
75438;BME280;64015;49.392;15.582;2023-02-24T00:47:12;95097.88;;;5.62;100.00
75438;BME280;64015;49.392;15.582;2023-02-24T00:49:39;95094.72;;;5.60;100.00
75438;BME280;64015;49.392;15.582;2023-02-24T00:52:15;95093.75;;;5.71;100.00
75438;BME280;64015;49.392;15.582;2023-02-24T00:54:42;95078.56;;;5.68;100.00
75438;BME280;64015;49.392;15.582;2023-02-24T00:57:09;95079.06;;;5.65;100.00
75438;BME280;64015;49.392;15.582;2023-02-24T00:59:36;95082.78;;;5.74;100.00
75438;BME280;64015;49.392;15.582;2023-02-24T01:02:03;95086.38;;;5.63;100.00
75438;BME280;64015;49.392;15.582;2023-02-24T01:04:32;95080.03;;;5.54;100.00
75438;BME280;64015;49.392;15.582;2023-02-24T01:06:58;95074.28;;;5.52;100.00
75438;BME280;64015;49.392;15.582;2023-02-24T01:09:28;95069.13;;;5.67;100.00
75438;BME280;64015;49.392;15.582;2023-02-24T01:11:55;95059.69;;;5.66;100.00
75438;BME280;64015;49.392;15.582;2023-02-24T01:14:48;95084.50;;;5.58;100.00
75438;BME280;64015;49.392;15.582;2023-02-24T01:17:16;95075.78;;;5.43;100.00
75438;BME280;64015;49.392;15.582;2023-02-24T01:19:43;95074.38;;;5.30;100.00
75438;BME280;64015;49.392;15.582;2023-02-24T01:22:12;95073.06;;;5.28;100.00
75438;BME280;64015;49.392;15.582;2023-02-24T01:24:41;95068.66;;;5.33;100.00
75438;BME280;64015;49.392;15.582;2023-02-24T01:27:08;95066.81;;;5.34;100.00
75438;BME280;64015;49.392;15.582;2023-02-24T01:29:35;95063.88;;;5.25;100.00
75438;BME280;64015;49.392;15.582;2023-02-24T01:32:05;95049.41;;;5.12;100.00
75438;BME280;64015;49.392;15.582;2023-02-24T01:34:31;95050.91;;;5.03;100.00
75438;BME280;64015;49.392;15.582;2023-02-24T01:36:57;95052.53;;;5.09;100.00
75438;BME280;64015;49.392;15.582;2023-02-24T01:39:22;95057.22;;;5.07;100.00
75438;BME280;64015;49.392;15.582;2023-02-24T01:41:50;95053.50;;;4.98;100.00
75438;BME280;64015;49.392;15.582;2023-02-24T01:46:45;95055.19;;;5.14;100.00
75438;BME280;64015;49.392;15.582;2023-02-24T01:49:18;95037.66;;;5.15;100.00
75438;BME280;64015;49.392;15.582;2023-02-24T01:51:58;95032.44;;;5.15;100.00
75438;BME280;64015;49.392;15.582;2023-02-24T01:54:33;95035.06;;;5.15;100.00
75438;BME280;64015;49.392;15.582;2023-02-24T01:57:00;95030.31;;;5.12;100.00
75438;BME280;64015;49.392;15.582;2023-02-24T01:59:28;95032.13;;;5.11;100.00
75438;BME280;64015;49.392;15.582;2023-02-24T02:01:59;95020.91;;;5.11;100.00
75438;BME280;64015;49.392;15.582;2023-02-24T02:04:45;95021.22;;;5.19;100.00
75438;BME280;64015;49.392;15.582;2023-02-24T02:07:15;95025.41;;;5.20;100.00
75438;BME280;64015;49.392;15.582;2023-02-24T02:09:42;95014.69;;;5.22;100.00
75438;BME280;64015;49.392;15.582;2023-02-24T02:12:09;95022.28;;;5.18;100.00
75438;BME280;64015;49.392;15.582;2023-02-24T02:14:37;95013.56;;;5.08;100.00
75438;BME280;64015;49.392;15.582;2023-02-24T02:17:15;95018.47;;;4.99;100.00
75438;BME280;64015;49.392;15.582;2023-02-24T02:20:00;95013.16;;;4.89;100.00
75438;BME280;64015;49.392;15.582;2023-02-24T02:28:28;95010.56;;;4.89;100.00
75438;BME280;64015;49.392;15.582;2023-02-24T02:34:05;95002.38;;;4.80;100.00
75438;BME280;64015;49.392;15.582;2023-02-24T02:41:55;94996.31;;;4.75;100.00
75438;BME280;64015;49.392;15.582;2023-02-24T02:44:38;94992.66;;;4.76;100.00
75438;BME280;64015;49.392;15.582;2023-02-24T02:47:36;94992.72;;;4.81;100.00
75438;BME280;64015;49.392;15.582;2023-02-24T02:52:48;94985.53;;;4.98;100.00
75438;BME280;64015;49.392;15.582;2023-02-24T02:55:27;94989.00;;;5.09;100.00
75438;BME280;64015;49.392;15.582;2023-02-24T02:57:57;94982.69;;;5.00;100.00
75438;BME280;64015;49.392;15.582;2023-02-24T03:00:29;94989.97;;;4.98;100.00
75438;BME280;64015;49.392;15.582;2023-02-24T03:03:06;94987.13;;;4.99;100.00
75438;BME280;64015;49.392;15.582;2023-02-24T03:05:38;94978.25;;;5.00;100.00
75438;BME280;64015;49.392;15.582;2023-02-24T03:08:14;94972.00;;;5.06;100.00
75438;BME280;64015;49.392;15.582;2023-02-24T03:10:48;94980.88;;;5.05;100.00
75438;BME280;64015;49.392;15.582;2023-02-24T03:13:21;94980.34;;;5.03;100.00
75438;BME280;64015;49.392;15.582;2023-02-24T03:15:51;94988.72;;;5.05;100.00
75438;BME280;64015;49.392;15.582;2023-02-24T03:18:29;94979.84;;;5.11;100.00
75438;BME280;64015;49.392;15.582;2023-02-24T03:21:02;94979.44;;;5.24;100.00
75438;BME280;64015;49.392;15.582;2023-02-24T03:23:34;94975.84;;;5.41;100.00
75438;BME280;64015;49.392;15.582;2023-02-24T03:26:20;94971.03;;;5.22;100.00
75438;BME280;64015;49.392;15.582;2023-02-24T03:29:08;94979.97;;;5.27;100.00
75438;BME280;64015;49.392;15.582;2023-02-24T03:31:38;94973.66;;;5.17;100.00
75438;BME280;64015;49.392;15.582;2023-02-24T03:36:58;94967.81;;;5.10;100.00
75438;BME280;64015;49.392;15.582;2023-02-24T03:39:24;94968.91;;;5.14;100.00
75438;BME280;64015;49.392;15.582;2023-02-24T03:44:23;94966.84;;;5.16;100.00
75438;BME280;64015;49.392;15.582;2023-02-24T03:46:50;94961.41;;;5.28;100.00
75438;BME280;64015;49.392;15.582;2023-02-24T03:49:16;94953.31;;;5.30;100.00
75438;BME280;64015;49.392;15.582;2023-02-24T03:55:03;94949.38;;;5.27;100.00
75438;BME280;64015;49.392;15.582;2023-02-24T04:08:50;94942.34;;;5.38;100.00
75438;BME280;64015;49.392;15.582;2023-02-24T04:11:32;94942.91;;;5.40;100.00
75438;BME280;64015;49.392;15.582;2023-02-24T04:14:09;94940.31;;;5.50;100.00
75438;BME280;64015;49.392;15.582;2023-02-24T04:16:46;94932.00;;;5.58;100.00
75438;BME280;64015;49.392;15.582;2023-02-24T04:19:15;94934.59;;;5.53;100.00
75438;BME280;64015;49.392;15.582;2023-02-24T04:21:44;94929.91;;;5.55;100.00
75438;BME280;64015;49.392;15.582;2023-02-24T04:24:14;94932.00;;;5.58;100.00
75438;BME280;64015;49.392;15.582;2023-02-24T04:26:43;94923.34;;;5.52;100.00
75438;BME280;64015;49.392;15.582;2023-02-24T04:29:14;94925.19;;;5.57;100.00
75438;BME280;64015;49.392;15.582;2023-02-24T04:31:51;94928.31;;;5.54;100.00
75438;BME280;64015;49.392;15.582;2023-02-24T04:34:18;94922.56;;;5.52;100.00
75438;BME280;64015;49.392;15.582;2023-02-24T04:36:47;94914.41;;;5.43;100.00
75438;BME280;64015;49.392;15.582;2023-02-24T04:39:18;94919.41;;;5.45;100.00
75438;BME280;64015;49.392;15.582;2023-02-24T04:41:45;94910.22;;;5.42;100.00
75438;BME280;64015;49.392;15.582;2023-02-24T04:44:18;94912.06;;;5.47;100.00
75438;BME280;64015;49.392;15.582;2023-02-24T04:46:46;94904.53;;;5.60;100.00
75438;BME280;64015;49.392;15.582;2023-02-24T04:49:14;94905.63;;;5.65;100.00
75438;BME280;64015;49.392;15.582;2023-02-24T04:51:40;94891.16;;;5.57;100.00
75438;BME280;64015;49.392;15.582;2023-02-24T04:54:11;94898.53;;;5.60;100.00
75438;BME280;64015;49.392;15.582;2023-02-24T04:56:50;94892.50;;;5.54;100.00
75438;BME280;64015;49.392;15.582;2023-02-24T04:59:17;94890.91;;;5.53;100.00
75438;BME280;64015;49.392;15.582;2023-02-24T05:01:44;94889.09;;;5.54;100.00
75438;BME280;64015;49.392;15.582;2023-02-24T05:04:11;94878.63;;;5.54;100.00
75438;BME280;64015;49.392;15.582;2023-02-24T05:06:40;94886.22;;;5.55;100.00
75438;BME280;64015;49.392;15.582;2023-02-24T05:09:13;94884.06;;;5.47;100.00
75438;BME280;64015;49.392;15.582;2023-02-24T05:11:43;94887.22;;;5.44;100.00
75438;BME280;64015;49.392;15.582;2023-02-24T05:14:11;94883.03;;;5.43;100.00
75438;BME280;64015;49.392;15.582;2023-02-24T05:16:41;94879.63;;;5.48;100.00
75438;BME280;64015;49.392;15.582;2023-02-24T05:19:12;94887.50;;;5.53;100.00
75438;BME280;64015;49.392;15.582;2023-02-24T05:21:56;94884.38;;;5.51;100.00
75438;BME280;64015;49.392;15.582;2023-02-24T05:24:26;94884.06;;;5.47;100.00
75438;BME280;64015;49.392;15.582;2023-02-24T05:26:54;94879.91;;;5.46;100.00
75438;BME280;64015;49.392;15.582;2023-02-24T05:29:33;94891.13;;;5.47;100.00
75438;BME280;64015;49.392;15.582;2023-02-24T05:31:59;94882.28;;;5.53;100.00
75438;BME280;64015;49.392;15.582;2023-02-24T05:34:26;94887.50;;;5.53;100.00
75438;BME280;64015;49.392;15.582;2023-02-24T05:36:55;94880.72;;;5.52;100.00
75438;BME280;64015;49.392;15.582;2023-02-24T05:39:22;94879.66;;;5.53;100.00
75438;BME280;64015;49.392;15.582;2023-02-24T05:41:51;94889.84;;;5.44;100.00
75438;BME280;64015;49.392;15.582;2023-02-24T05:44:20;94869.91;;;5.38;100.00
75438;BME280;64015;49.392;15.582;2023-02-24T05:46:52;94879.38;;;5.44;100.00
75438;BME280;64015;49.392;15.582;2023-02-24T05:49:26;94876.00;;;5.54;100.00
75438;BME280;64015;49.392;15.582;2023-02-24T05:51:57;94880.16;;;5.45;100.00
75438;BME280;64015;49.392;15.582;2023-02-24T05:54:28;94878.03;;;5.37;100.00
75438;BME280;64015;49.392;15.582;2023-02-24T05:56:59;94869.97;;;5.43;100.00
75438;BME280;64015;49.392;15.582;2023-02-24T05:59:26;94867.63;;;5.52;100.00
75438;BME280;64015;49.392;15.582;2023-02-24T06:01:58;94868.66;;;5.46;100.00
75438;BME280;64015;49.392;15.582;2023-02-24T06:04:25;94871.25;;;5.41;100.00
75438;BME280;64015;49.392;15.582;2023-02-24T06:07:19;94876.50;;;5.51;100.00
75438;BME280;64015;49.392;15.582;2023-02-24T06:09:46;94870.28;;;5.67;100.00
75438;BME280;64015;49.392;15.582;2023-02-24T06:12:15;94873.91;;;5.46;100.00
75438;BME280;64015;49.392;15.582;2023-02-24T06:14:41;94880.38;;;5.38;100.00
75438;BME280;64015;49.392;15.582;2023-02-24T06:17:07;94879.59;;;5.38;100.00
75438;BME280;64015;49.392;15.582;2023-02-24T06:19:33;94879.13;;;5.46;100.00
75438;BME280;64015;49.392;15.582;2023-02-24T06:22:00;94871.31;;;5.56;100.00
75438;BME280;64015;49.392;15.582;2023-02-24T06:24:28;94871.28;;;5.46;100.00
75438;BME280;64015;49.392;15.582;2023-02-24T06:26:55;94871.78;;;5.43;100.00
75438;BME280;64015;49.392;15.582;2023-02-24T06:29:29;94867.06;;;5.35;100.00
75438;BME280;64015;49.392;15.582;2023-02-24T06:31:55;94857.88;;;5.32;100.00
75438;BME280;64015;49.392;15.582;2023-02-24T06:34:22;94864.94;;;5.32;100.00
75438;BME280;64015;49.392;15.582;2023-02-24T06:36:50;94860.78;;;5.36;100.00
75438;BME280;64015;49.392;15.582;2023-02-24T06:39:17;94860.00;;;5.40;100.00
75438;BME280;64015;49.392;15.582;2023-02-24T06:41:44;94861.34;;;5.53;100.00
75438;BME280;64015;49.392;15.582;2023-02-24T06:44:10;94857.16;;;5.52;100.00
75438;BME280;64015;49.392;15.582;2023-02-24T06:46:36;94848.31;;;5.63;100.00
75438;BME280;64015;49.392;15.582;2023-02-24T06:49:02;94857.19;;;5.67;100.00
75438;BME280;64015;49.392;15.582;2023-02-24T06:51:28;94857.22;;;5.72;100.00
75438;BME280;64015;49.392;15.582;2023-02-24T06:53:58;94862.72;;;5.71;100.00
75438;BME280;64015;49.392;15.582;2023-02-24T06:56:25;94854.84;;;5.76;100.00
75438;BME280;64015;49.392;15.582;2023-02-24T06:58:53;94859.63;;;5.89;100.00
75438;BME280;64015;49.392;15.582;2023-02-24T07:01:22;94847.81;;;5.86;100.00
75438;BME280;64015;49.392;15.582;2023-02-24T07:03:55;94851.00;;;5.93;100.00
75438;BME280;64015;49.392;15.582;2023-02-24T07:06:35;94851.00;;;5.88;100.00
75438;BME280;64015;49.392;15.582;2023-02-24T07:09:04;94838.19;;;5.97;100.00
75438;BME280;64015;49.392;15.582;2023-02-24T07:11:32;94836.63;;;6.01;100.00
75438;BME280;64015;49.392;15.582;2023-02-24T07:13:59;94826.16;;;6.01;100.00
75438;BME280;64015;49.392;15.582;2023-02-24T07:16:26;94821.69;;;6.07;100.00
75438;BME280;64015;49.392;15.582;2023-02-24T07:18:54;94827.44;;;6.04;100.00
75438;BME280;64015;49.392;15.582;2023-02-24T07:21:21;94816.44;;;6.12;100.00
75438;BME280;64015;49.392;15.582;2023-02-24T07:23:48;94805.47;;;6.15;100.00
75438;BME280;64015;49.392;15.582;2023-02-24T07:26:18;94810.19;;;6.18;100.00
75438;BME280;64015;49.392;15.582;2023-02-24T07:28:47;94836.88;;;6.25;100.00
75438;BME280;64015;49.392;15.582;2023-02-24T07:31:15;94823.53;;;6.26;100.00
75438;BME280;64015;49.392;15.582;2023-02-24T07:33:43;94829.03;;;6.30;100.00
75438;BME280;64015;49.392;15.582;2023-02-24T07:36:14;94826.13;;;6.21;100.00
75438;BME280;64015;49.392;15.582;2023-02-24T07:38:43;94822.75;;;6.26;100.00
75438;BME280;64015;49.392;15.582;2023-02-24T07:41:10;94816.72;;;6.25;100.00
75438;BME280;64015;49.392;15.582;2023-02-24T07:43:39;94819.06;;;6.37;100.00
75438;BME280;64015;49.392;15.582;2023-02-24T07:46:14;94811.72;;;6.44;100.00
75438;BME280;64015;49.392;15.582;2023-02-24T07:48:40;94805.72;;;6.49;100.00
75438;BME280;64015;49.392;15.582;2023-02-24T07:51:11;94809.59;;;6.61;100.00
75438;BME280;64015;49.392;15.582;2023-02-24T07:53:39;94808.06;;;6.55;100.00
75438;BME280;64015;49.392;15.582;2023-02-24T07:56:10;94806.47;;;6.59;100.00
75438;BME280;64015;49.392;15.582;2023-02-24T07:58:50;94794.13;;;6.60;100.00
75438;BME280;64015;49.392;15.582;2023-02-24T08:01:18;94784.13;;;6.82;100.00
75438;BME280;64015;49.392;15.582;2023-02-24T08:03:55;94785.91;;;6.97;100.00
75438;BME280;64015;49.392;15.582;2023-02-24T08:06:30;94784.81;;;7.13;100.00
75438;BME280;64015;49.392;15.582;2023-02-24T08:09:19;94781.09;;;7.19;100.00
75438;BME280;64015;49.392;15.582;2023-02-24T08:11:53;94790.72;;;7.34;100.00
75438;BME280;64015;49.392;15.582;2023-02-24T08:14:25;94785.22;;;7.40;100.00
75438;BME280;64015;49.392;15.582;2023-02-24T08:16:55;94776.56;;;7.40;100.00
75438;BME280;64015;49.392;15.582;2023-02-24T08:19:26;94781.50;;;7.41;100.00
75438;BME280;64015;49.392;15.582;2023-02-24T08:21:59;94776.25;;;7.41;100.00
75438;BME280;64015;49.392;15.582;2023-02-24T08:25:10;94765.84;;;7.31;100.00
75438;BME280;64015;49.392;15.582;2023-02-24T08:27:44;94777.25;;;7.56;100.00
75438;BME280;64015;49.392;15.582;2023-02-24T08:30:11;94774.56;;;7.66;100.00
75438;BME280;64015;49.392;15.582;2023-02-24T08:32:51;94769.25;;;7.71;100.00
75438;BME280;64015;49.392;15.582;2023-02-24T08:35:28;94769.72;;;7.83;100.00
75438;BME280;64015;49.392;15.582;2023-02-24T08:38:18;94763.97;;;8.15;99.84
75438;BME280;64015;49.392;15.582;2023-02-24T08:40:47;94764.09;;;8.34;97.65
75438;BME280;64015;49.392;15.582;2023-02-24T08:43:28;94762.63;;;8.46;96.69
75438;BME280;64015;49.392;15.582;2023-02-24T08:45:59;94755.38;;;8.62;94.86
75438;BME280;64015;49.392;15.582;2023-02-24T08:48:36;94759.56;;;8.63;94.98
75438;BME280;64015;49.392;15.582;2023-02-24T08:53:34;94749.63;;;8.60;95.84
75438;BME280;64015;49.392;15.582;2023-02-24T08:56:01;94751.47;;;8.59;94.54
75438;BME280;64015;49.392;15.582;2023-02-24T08:58:43;94761.47;;;8.57;94.97
75438;BME280;64015;49.392;15.582;2023-02-24T09:01:14;94754.31;;;8.39;96.20
75438;BME280;64015;49.392;15.582;2023-02-24T09:03:45;94752.00;;;8.33;97.33
75438;BME280;64015;49.392;15.582;2023-02-24T09:06:14;94756.19;;;8.34;97.55
75438;BME280;64015;49.392;15.582;2023-02-24T09:08:43;94740.09;;;8.40;96.92
75438;BME280;64015;49.392;15.582;2023-02-24T09:11:12;94738.78;;;8.43;95.61
75438;BME280;64015;49.392;15.582;2023-02-24T09:13:41;94738.38;;;8.54;94.12
75438;BME280;64015;49.392;15.582;2023-02-24T09:16:20;94731.91;;;8.71;94.63
75438;BME280;64015;49.392;15.582;2023-02-24T09:18:49;94738.66;;;8.77;92.04
75438;BME280;64015;49.392;15.582;2023-02-24T09:21:36;94724.00;;;8.94;91.84
75438;BME280;64015;49.392;15.582;2023-02-24T09:24:14;94724.41;;;9.02;89.91
75438;BME280;64015;49.392;15.582;2023-02-24T09:26:55;94719.56;;;9.32;89.23
75438;BME280;64015;49.392;15.582;2023-02-24T09:29:26;94728.50;;;9.31;88.29
75438;BME280;64015;49.392;15.582;2023-02-24T09:32:03;94721.66;;;9.12;87.34
75438;BME280;64015;49.392;15.582;2023-02-24T09:34:34;94714.69;;;9.02;89.75
75438;BME280;64015;49.392;15.582;2023-02-24T09:37:01;94708.44;;;8.98;89.39
75438;BME280;64015;49.392;15.582;2023-02-24T09:39:32;94710.91;;;8.89;91.12
75438;BME280;64015;49.392;15.582;2023-02-24T09:42:22;94712.59;;;8.80;89.86
75438;BME280;64015;49.392;15.582;2023-02-24T09:44:50;94711.06;;;8.74;90.01
75438;BME280;64015;49.392;15.582;2023-02-24T09:52:53;94703.34;;;9.25;86.03
75438;BME280;64015;49.392;15.582;2023-02-24T09:58:47;94693.91;;;10.08;81.59
75438;BME280;64015;49.392;15.582;2023-02-24T10:01:43;94706.72;;;9.82;82.75
75438;BME280;64015;49.392;15.582;2023-02-24T10:05:17;94704.53;;;9.14;83.72
75438;BME280;64015;49.392;15.582;2023-02-24T10:07:39;94709.31;;;8.70;95.56
75438;BME280;64015;49.392;15.582;2023-02-24T10:10:26;94714.25;;;7.90;100.00
75438;BME280;64015;49.392;15.582;2023-02-24T10:13:00;94722.88;;;7.61;100.00
75438;BME280;64015;49.392;15.582;2023-02-24T10:15:31;94716.56;;;7.23;100.00
75438;BME280;64015;49.392;15.582;2023-02-24T10:19:13;94726.63;;;7.06;100.00
75438;BME280;64015;49.392;15.582;2023-02-24T10:21:47;94716.69;;;6.98;100.00
75438;BME280;64015;49.392;15.582;2023-02-24T10:24:38;94717.22;;;7.00;100.00
75438;BME280;64015;49.392;15.582;2023-02-24T10:30:12;94706.41;;;7.11;100.00
75438;BME280;64015;49.392;15.582;2023-02-24T10:32:58;94698.59;;;7.45;100.00
75438;BME280;64015;49.392;15.582;2023-02-24T10:35:48;94697.00;;;7.44;100.00
75438;BME280;64015;49.392;15.582;2023-02-24T10:38:22;94686.38;;;7.26;100.00
75438;BME280;64015;49.392;15.582;2023-02-24T10:40:52;94687.53;;;7.09;100.00
75438;BME280;64015;49.392;15.582;2023-02-24T10:43:23;94677.84;;;7.10;100.00
75438;BME280;64015;49.392;15.582;2023-02-24T10:45:56;94669.97;;;7.10;100.00
75438;BME280;64015;49.392;15.582;2023-02-24T10:48:32;94654.28;;;7.00;100.00
75438;BME280;64015;49.392;15.582;2023-02-24T10:51:14;94657.19;;;6.98;100.00
75438;BME280;64015;49.392;15.582;2023-02-24T10:53:50;94657.94;;;7.04;100.00
75438;BME280;64015;49.392;15.582;2023-02-24T10:56:40;94644.47;;;7.21;100.00
75438;BME280;64015;49.392;15.582;2023-02-24T10:59:16;94640.16;;;7.35;100.00
75438;BME280;64015;49.392;15.582;2023-02-24T11:01:54;94639.94;;;7.60;100.00
75438;BME280;64015;49.392;15.582;2023-02-24T11:04:36;94637.84;;;7.91;98.08
75438;BME280;64015;49.392;15.582;2023-02-24T11:07:20;94631.38;;;8.07;97.77
75438;BME280;64015;49.392;15.582;2023-02-24T11:10:05;94624.44;;;8.16;96.05
75438;BME280;64015;49.392;15.582;2023-02-24T11:12:45;94624.66;;;8.49;93.15
75438;BME280;64015;49.392;15.582;2023-02-24T11:15:33;94611.69;;;8.76;90.39
75438;BME280;64015;49.392;15.582;2023-02-24T11:18:28;94608.03;;;9.10;90.51
75438;BME280;64015;49.392;15.582;2023-02-24T11:21:01;94597.66;;;10.10;80.78
75438;BME280;64015;49.392;15.582;2023-02-24T11:23:47;94589.47;;;9.85;83.87
75438;BME280;64015;49.392;15.582;2023-02-24T11:26:21;94588.97;;;9.18;82.60
75438;BME280;64015;49.392;15.582;2023-02-24T11:40:21;94544.38;;;13.83;58.36
75438;BME280;64015;49.392;15.582;2023-02-24T11:43:10;94543.66;;;14.50;56.79
75438;BME280;64015;49.392;15.582;2023-02-24T11:45:42;94551.59;;;14.79;54.75
75438;BME280;64015;49.392;15.582;2023-02-24T11:48:28;94536.94;;;15.56;52.54
75438;BME280;64015;49.392;15.582;2023-02-24T11:51:16;94539.88;;;15.88;50.49
75438;BME280;64015;49.392;15.582;2023-02-24T11:56:30;94529.72;;;16.38;48.48
75438;BME280;64015;49.392;15.582;2023-02-24T12:00:00;94511.44;;;16.49;48.13
75438;BME280;64015;49.392;15.582;2023-02-24T12:02:43;94498.44;;;17.40;45.92
75438;BME280;64015;49.392;15.582;2023-02-24T12:05:35;94503.16;;;17.46;44.21
75438;BME280;64015;49.392;15.582;2023-02-24T12:10:46;94495.50;;;15.67;46.94
75438;BME280;64015;49.392;15.582;2023-02-24T12:16:09;94491.63;;;13.61;53.01
75438;BME280;64015;49.392;15.582;2023-02-24T12:19:03;94487.47;;;13.25;55.26
75438;BME280;64015;49.392;15.582;2023-02-24T12:21:33;94479.88;;;12.46;58.49
75438;BME280;64015;49.392;15.582;2023-02-24T12:24:00;94477.03;;;12.34;59.84
75438;BME280;64015;49.392;15.582;2023-02-24T12:32:03;94483.63;;;11.57;58.06
75438;BME280;64015;49.392;15.582;2023-02-24T12:40:14;94479.44;;;10.59;59.88
75438;BME280;64015;49.392;15.582;2023-02-24T12:42:49;94456.53;;;10.45;60.69
75438;BME280;64015;49.392;15.582;2023-02-24T12:51:23;94455.41;;;10.24;62.79
75438;BME280;64015;49.392;15.582;2023-02-24T12:56:51;94436.91;;;11.05;60.16
75438;BME280;64015;49.392;15.582;2023-02-24T12:59:24;94419.66;;;12.52;56.22
75438;BME280;64015;49.392;15.582;2023-02-24T13:13:08;94406.88;;;12.02;56.55
75438;BME280;64015;49.392;15.582;2023-02-24T13:15:35;94405.44;;;11.87;56.47
75438;BME280;64015;49.392;15.582;2023-02-24T13:18:01;94412.78;;;11.59;57.58
75438;BME280;64015;49.392;15.582;2023-02-24T13:22:55;94391.63;;;11.99;56.34
75438;BME280;64015;49.392;15.582;2023-02-24T13:25:29;94384.00;;;12.06;55.91
75438;BME280;64015;49.392;15.582;2023-02-24T13:28:00;94384.88;;;11.67;57.55
75438;BME280;64015;49.392;15.582;2023-02-24T13:33:20;94378.91;;;11.13;56.60
75438;BME280;64015;49.392;15.582;2023-02-24T13:35:49;94369.34;;;10.95;58.66
75438;BME280;64015;49.392;15.582;2023-02-24T13:38:34;94367.84;;;10.72;60.08
75438;BME280;64015;49.392;15.582;2023-02-24T13:43:54;94361.19;;;10.74;58.85
75438;BME280;64015;49.392;15.582;2023-02-24T13:46:21;94349.03;;;10.96;58.87
75438;BME280;64015;49.392;15.582;2023-02-24T13:48:49;94352.94;;;11.38;57.04
75438;BME280;64015;49.392;15.582;2023-02-24T14:02:38;94340.56;;;11.64;55.81
75438;BME280;64015;49.392;15.582;2023-02-24T14:05:12;94349.75;;;11.18;55.74
75438;BME280;64015;49.392;15.582;2023-02-24T14:07:42;94328.13;;;10.77;56.05
75438;BME280;64015;49.392;15.582;2023-02-24T14:12:44;94327.78;;;10.03;59.49
75438;BME280;64015;49.392;15.582;2023-02-24T14:15:14;94320.72;;;9.90;60.23
75438;BME280;64015;49.392;15.582;2023-02-24T14:17:40;94322.97;;;9.83;60.44
75438;BME280;64015;49.392;15.582;2023-02-24T14:20:09;94319.47;;;9.73;60.11
75438;BME280;64015;49.392;15.582;2023-02-24T14:22:45;94318.63;;;9.64;59.76
75438;BME280;64015;49.392;15.582;2023-02-24T14:25:12;94320.03;;;9.48;60.71
75438;BME280;64015;49.392;15.582;2023-02-24T14:27:43;94318.59;;;9.42;60.31
75438;BME280;64015;49.392;15.582;2023-02-24T14:30:30;94321.28;;;9.51;60.36
75438;BME280;64015;49.392;15.582;2023-02-24T14:32:58;94312.13;;;9.62;60.57
75438;BME280;64015;49.392;15.582;2023-02-24T14:35:44;94316.22;;;9.54;59.78
75438;BME280;64015;49.392;15.582;2023-02-24T14:38:35;94300.66;;;9.44;60.73
75438;BME280;64015;49.392;15.582;2023-02-24T14:41:04;94298.31;;;9.43;59.49
75438;BME280;64015;49.392;15.582;2023-02-24T14:43:31;94281.66;;;9.33;60.95
75438;BME280;64015;49.392;15.582;2023-02-24T14:45:57;94283.69;;;9.36;60.96
75438;BME280;64015;49.392;15.582;2023-02-24T14:48:30;94282.72;;;9.32;60.12
75438;BME280;64015;49.392;15.582;2023-02-24T14:51:06;94280.19;;;9.41;59.79
75438;BME280;64015;49.392;15.582;2023-02-24T14:53:47;94286.50;;;9.54;59.94
75438;BME280;64015;49.392;15.582;2023-02-24T14:56:15;94276.75;;;9.54;60.25
75438;BME280;64015;49.392;15.582;2023-02-24T14:58:52;94276.47;;;9.42;59.76
75438;BME280;64015;49.392;15.582;2023-02-24T15:01:21;94273.25;;;9.45;60.82
75438;BME280;64015;49.392;15.582;2023-02-24T15:03:54;94260.56;;;9.47;60.44
75438;BME280;64015;49.392;15.582;2023-02-24T15:06:24;94254.44;;;9.38;60.35
75438;BME280;64015;49.392;15.582;2023-02-24T15:09:02;94265.56;;;9.93;59.64
75438;BME280;64015;49.392;15.582;2023-02-24T15:11:31;94230.03;;;11.14;56.08
75438;BME280;64015;49.392;15.582;2023-02-24T15:14:02;94231.03;;;11.87;54.25
75438;BME280;64015;49.392;15.582;2023-02-24T15:21:47;94205.56;;;11.91;53.96
75438;BME280;64015;49.392;15.582;2023-02-24T15:24:38;94209.84;;;11.01;56.22
75438;BME280;64015;49.392;15.582;2023-02-24T15:33:36;94204.94;;;9.85;62.00
75438;BME280;64015;49.392;15.582;2023-02-24T15:36:29;94198.91;;;9.62;64.05
75438;BME280;64015;49.392;15.582;2023-02-24T15:39:05;94189.97;;;9.49;64.82
75438;BME280;64015;49.392;15.582;2023-02-24T15:41:40;94197.69;;;9.46;65.55